sensor_id;sensor_type;location;lat;lon;timestamp;temperature;humidity
12911;DHT22;6523;49.758;6.120;2023-04-23T00:00:04;11.40;99.90
12911;DHT22;6523;49.758;6.120;2023-04-23T00:02:32;11.30;99.90
12911;DHT22;6523;49.758;6.120;2023-04-23T00:05:02;11.30;99.90
12911;DHT22;6523;49.758;6.120;2023-04-23T00:07:31;11.20;99.90
12911;DHT22;6523;49.758;6.120;2023-04-23T00:09:56;11.20;99.90
12911;DHT22;6523;49.758;6.120;2023-04-23T00:12:23;11.20;99.90
12911;DHT22;6523;49.758;6.120;2023-04-23T00:14:49;11.30;99.90
12911;DHT22;6523;49.758;6.120;2023-04-23T00:17:14;11.30;99.90
12911;DHT22;6523;49.758;6.120;2023-04-23T00:19:40;11.30;99.90
12911;DHT22;6523;49.758;6.120;2023-04-23T00:22:05;11.30;99.90
12911;DHT22;6523;49.758;6.120;2023-04-23T00:24:31;11.30;99.90
12911;DHT22;6523;49.758;6.120;2023-04-23T00:26:58;11.40;99.90
12911;DHT22;6523;49.758;6.120;2023-04-23T00:29:24;11.40;99.90
12911;DHT22;6523;49.758;6.120;2023-04-23T00:31:49;11.30;99.90
12911;DHT22;6523;49.758;6.120;2023-04-23T00:34:15;11.30;99.90
12911;DHT22;6523;49.758;6.120;2023-04-23T00:36:40;11.30;99.90
12911;DHT22;6523;49.758;6.120;2023-04-23T00:39:06;11.30;99.90
12911;DHT22;6523;49.758;6.120;2023-04-23T00:41:33;11.30;99.90
12911;DHT22;6523;49.758;6.120;2023-04-23T00:43:59;11.30;99.90
12911;DHT22;6523;49.758;6.120;2023-04-23T00:46:25;11.30;99.90
12911;DHT22;6523;49.758;6.120;2023-04-23T00:48:51;11.20;99.90
12911;DHT22;6523;49.758;6.120;2023-04-23T00:51:17;11.20;99.90
12911;DHT22;6523;49.758;6.120;2023-04-23T00:53:43;11.20;99.90
12911;DHT22;6523;49.758;6.120;2023-04-23T00:56:09;11.20;99.90
12911;DHT22;6523;49.758;6.120;2023-04-23T00:58:35;11.20;99.90
12911;DHT22;6523;49.758;6.120;2023-04-23T01:01:00;11.20;99.90
12911;DHT22;6523;49.758;6.120;2023-04-23T01:03:29;11.30;99.90
12911;DHT22;6523;49.758;6.120;2023-04-23T01:05:57;11.20;99.90
12911;DHT22;6523;49.758;6.120;2023-04-23T01:08:23;11.10;99.90
12911;DHT22;6523;49.758;6.120;2023-04-23T01:10:50;11.10;99.90
12911;DHT22;6523;49.758;6.120;2023-04-23T01:13:16;11.00;99.90
12911;DHT22;6523;49.758;6.120;2023-04-23T01:15:43;10.90;99.90
12911;DHT22;6523;49.758;6.120;2023-04-23T01:18:09;10.90;99.90
12911;DHT22;6523;49.758;6.120;2023-04-23T01:20:36;10.90;99.90
12911;DHT22;6523;49.758;6.120;2023-04-23T01:23:02;11.00;99.90
12911;DHT22;6523;49.758;6.120;2023-04-23T01:25:28;11.00;99.90
12911;DHT22;6523;49.758;6.120;2023-04-23T01:27:54;11.00;99.90
12911;DHT22;6523;49.758;6.120;2023-04-23T01:30:20;11.00;99.90
12911;DHT22;6523;49.758;6.120;2023-04-23T01:32:46;11.00;99.90
12911;DHT22;6523;49.758;6.120;2023-04-23T01:35:12;11.00;99.90
12911;DHT22;6523;49.758;6.120;2023-04-23T01:37:38;11.00;99.90
12911;DHT22;6523;49.758;6.120;2023-04-23T01:40:06;11.00;99.90
12911;DHT22;6523;49.758;6.120;2023-04-23T01:42:32;10.90;99.90
12911;DHT22;6523;49.758;6.120;2023-04-23T01:44:58;10.90;99.90
12911;DHT22;6523;49.758;6.120;2023-04-23T01:47:24;10.90;99.90
12911;DHT22;6523;49.758;6.120;2023-04-23T01:49:50;10.80;99.90
12911;DHT22;6523;49.758;6.120;2023-04-23T01:52:15;10.80;99.90
12911;DHT22;6523;49.758;6.120;2023-04-23T01:54:41;10.90;99.90
12911;DHT22;6523;49.758;6.120;2023-04-23T01:57:07;10.90;99.90
12911;DHT22;6523;49.758;6.120;2023-04-23T01:59:33;10.90;99.90
12911;DHT22;6523;49.758;6.120;2023-04-23T02:01:58;10.90;99.90
12911;DHT22;6523;49.758;6.120;2023-04-23T02:04:24;10.80;99.90
12911;DHT22;6523;49.758;6.120;2023-04-23T02:06:50;10.70;99.90
12911;DHT22;6523;49.758;6.120;2023-04-23T02:09:16;10.70;99.90
12911;DHT22;6523;49.758;6.120;2023-04-23T02:11:41;10.70;99.90
12911;DHT22;6523;49.758;6.120;2023-04-23T02:14:08;10.60;99.90
12911;DHT22;6523;49.758;6.120;2023-04-23T02:16:34;10.70;99.90
12911;DHT22;6523;49.758;6.120;2023-04-23T02:18:59;10.60;99.90
12911;DHT22;6523;49.758;6.120;2023-04-23T02:21:26;10.70;99.90
12911;DHT22;6523;49.758;6.120;2023-04-23T02:23:52;10.70;99.90
12911;DHT22;6523;49.758;6.120;2023-04-23T02:26:18;10.70;99.90
12911;DHT22;6523;49.758;6.120;2023-04-23T02:28:47;10.70;99.90
12911;DHT22;6523;49.758;6.120;2023-04-23T02:31:12;10.70;99.90
12911;DHT22;6523;49.758;6.120;2023-04-23T02:33:39;10.60;99.90
12911;DHT22;6523;49.758;6.120;2023-04-23T02:36:05;10.60;99.90
12911;DHT22;6523;49.758;6.120;2023-04-23T02:38:31;10.70;99.90
12911;DHT22;6523;49.758;6.120;2023-04-23T02:40:57;10.60;99.90
12911;DHT22;6523;49.758;6.120;2023-04-23T02:43:22;10.70;99.90
12911;DHT22;6523;49.758;6.120;2023-04-23T02:45:48;10.70;99.90
12911;DHT22;6523;49.758;6.120;2023-04-23T02:48:13;10.70;99.90
12911;DHT22;6523;49.758;6.120;2023-04-23T02:50:39;10.70;99.90
12911;DHT22;6523;49.758;6.120;2023-04-23T02:53:05;10.70;99.90
12911;DHT22;6523;49.758;6.120;2023-04-23T02:55:30;10.70;99.90
12911;DHT22;6523;49.758;6.120;2023-04-23T02:57:56;10.60;99.90
12911;DHT22;6523;49.758;6.120;2023-04-23T03:00:23;10.60;99.90
12911;DHT22;6523;49.758;6.120;2023-04-23T03:02:49;10.50;99.90
12911;DHT22;6523;49.758;6.120;2023-04-23T03:05:14;10.50;99.90
12911;DHT22;6523;49.758;6.120;2023-04-23T03:07:40;10.50;99.90
12911;DHT22;6523;49.758;6.120;2023-04-23T03:10:06;10.50;99.90
12911;DHT22;6523;49.758;6.120;2023-04-23T03:12:32;10.50;99.90
12911;DHT22;6523;49.758;6.120;2023-04-23T03:14:58;10.50;99.90
12911;DHT22;6523;49.758;6.120;2023-04-23T03:17:23;10.50;99.90
12911;DHT22;6523;49.758;6.120;2023-04-23T03:19:49;10.50;99.90
12911;DHT22;6523;49.758;6.120;2023-04-23T03:22:14;10.50;99.90
12911;DHT22;6523;49.758;6.120;2023-04-23T03:24:40;10.40;99.90
12911;DHT22;6523;49.758;6.120;2023-04-23T03:27:06;10.50;99.90
12911;DHT22;6523;49.758;6.120;2023-04-23T03:29:31;10.50;99.90
12911;DHT22;6523;49.758;6.120;2023-04-23T03:31:57;10.50;99.90
12911;DHT22;6523;49.758;6.120;2023-04-23T03:34:22;10.40;99.90
12911;DHT22;6523;49.758;6.120;2023-04-23T03:36:48;10.40;99.90
12911;DHT22;6523;49.758;6.120;2023-04-23T03:39:14;10.40;99.90
12911;DHT22;6523;49.758;6.120;2023-04-23T03:41:40;10.40;99.90
12911;DHT22;6523;49.758;6.120;2023-04-23T03:44:05;10.40;99.90
12911;DHT22;6523;49.758;6.120;2023-04-23T03:46:31;10.40;99.90
12911;DHT22;6523;49.758;6.120;2023-04-23T03:48:56;10.40;99.90
12911;DHT22;6523;49.758;6.120;2023-04-23T03:51:22;10.30;99.90
12911;DHT22;6523;49.758;6.120;2023-04-23T03:53:48;10.30;99.90
12911;DHT22;6523;49.758;6.120;2023-04-23T03:56:13;10.30;99.90
12911;DHT22;6523;49.758;6.120;2023-04-23T03:58:39;10.30;99.90
12911;DHT22;6523;49.758;6.120;2023-04-23T04:01:04;10.40;99.90
12911;DHT22;6523;49.758;6.120;2023-04-23T04:03:30;10.40;99.90
12911;DHT22;6523;49.758;6.120;2023-04-23T04:05:55;10.50;99.90
12911;DHT22;6523;49.758;6.120;2023-04-23T04:08:21;10.50;99.90
12911;DHT22;6523;49.758;6.120;2023-04-23T04:10:47;10.40;99.90
12911;DHT22;6523;49.758;6.120;2023-04-23T04:13:12;10.30;99.90
12911;DHT22;6523;49.758;6.120;2023-04-23T04:15:40;10.30;99.90
12911;DHT22;6523;49.758;6.120;2023-04-23T04:18:05;10.30;99.90
12911;DHT22;6523;49.758;6.120;2023-04-23T04:20:31;10.30;99.90
12911;DHT22;6523;49.758;6.120;2023-04-23T04:22:56;10.40;99.90
12911;DHT22;6523;49.758;6.120;2023-04-23T04:25:22;10.50;99.90
12911;DHT22;6523;49.758;6.120;2023-04-23T04:27:48;10.50;99.90
12911;DHT22;6523;49.758;6.120;2023-04-23T04:30:14;10.60;99.90
12911;DHT22;6523;49.758;6.120;2023-04-23T04:32:40;10.70;99.90
12911;DHT22;6523;49.758;6.120;2023-04-23T04:35:07;10.70;99.90
12911;DHT22;6523;49.758;6.120;2023-04-23T04:37:37;10.80;99.90
12911;DHT22;6523;49.758;6.120;2023-04-23T04:40:03;10.70;99.90
12911;DHT22;6523;49.758;6.120;2023-04-23T04:42:29;10.70;99.90
12911;DHT22;6523;49.758;6.120;2023-04-23T04:44:55;10.70;99.90
12911;DHT22;6523;49.758;6.120;2023-04-23T04:47:24;10.70;99.90
12911;DHT22;6523;49.758;6.120;2023-04-23T04:49:49;10.70;99.90
12911;DHT22;6523;49.758;6.120;2023-04-23T04:52:15;10.60;99.90
12911;DHT22;6523;49.758;6.120;2023-04-23T04:54:41;10.70;99.90
12911;DHT22;6523;49.758;6.120;2023-04-23T04:57:07;10.60;99.90
12911;DHT22;6523;49.758;6.120;2023-04-23T04:59:33;10.70;99.90
12911;DHT22;6523;49.758;6.120;2023-04-23T05:01:58;10.60;99.90
12911;DHT22;6523;49.758;6.120;2023-04-23T05:04:24;10.70;99.90
12911;DHT22;6523;49.758;6.120;2023-04-23T05:06:50;10.70;99.90
12911;DHT22;6523;49.758;6.120;2023-04-23T05:09:15;10.70;99.90
12911;DHT22;6523;49.758;6.120;2023-04-23T05:11:41;10.70;99.90
12911;DHT22;6523;49.758;6.120;2023-04-23T05:14:07;10.70;99.90
12911;DHT22;6523;49.758;6.120;2023-04-23T05:16:33;10.70;99.90
12911;DHT22;6523;49.758;6.120;2023-04-23T05:18:59;10.70;99.90
12911;DHT22;6523;49.758;6.120;2023-04-23T05:21:24;10.70;99.90
12911;DHT22;6523;49.758;6.120;2023-04-23T05:23:52;10.70;99.90
12911;DHT22;6523;49.758;6.120;2023-04-23T05:26:19;10.80;99.90
12911;DHT22;6523;49.758;6.120;2023-04-23T05:28:45;10.80;99.90
12911;DHT22;6523;49.758;6.120;2023-04-23T05:31:10;10.80;99.90
12911;DHT22;6523;49.758;6.120;2023-04-23T05:33:36;10.80;99.90
12911;DHT22;6523;49.758;6.120;2023-04-23T05:36:02;10.80;99.90
12911;DHT22;6523;49.758;6.120;2023-04-23T05:38:28;10.80;99.90
12911;DHT22;6523;49.758;6.120;2023-04-23T05:40:53;10.90;99.90
12911;DHT22;6523;49.758;6.120;2023-04-23T05:43:19;10.90;99.90
12911;DHT22;6523;49.758;6.120;2023-04-23T05:45:44;10.90;99.90
12911;DHT22;6523;49.758;6.120;2023-04-23T05:48:10;11.00;99.90
12911;DHT22;6523;49.758;6.120;2023-04-23T05:50:36;10.90;99.90
12911;DHT22;6523;49.758;6.120;2023-04-23T05:53:01;10.90;99.90
12911;DHT22;6523;49.758;6.120;2023-04-23T05:55:27;10.90;99.90
12911;DHT22;6523;49.758;6.120;2023-04-23T05:57:53;11.00;99.90
12911;DHT22;6523;49.758;6.120;2023-04-23T06:00:18;11.00;99.90
12911;DHT22;6523;49.758;6.120;2023-04-23T06:02:45;11.00;99.90
12911;DHT22;6523;49.758;6.120;2023-04-23T06:05:10;11.00;99.90
12911;DHT22;6523;49.758;6.120;2023-04-23T06:07:36;11.00;99.90
12911;DHT22;6523;49.758;6.120;2023-04-23T06:10:03;11.10;99.90
12911;DHT22;6523;49.758;6.120;2023-04-23T06:12:29;11.10;99.90
12911;DHT22;6523;49.758;6.120;2023-04-23T06:14:55;11.10;99.90
12911;DHT22;6523;49.758;6.120;2023-04-23T06:17:21;11.10;99.90
12911;DHT22;6523;49.758;6.120;2023-04-23T06:19:46;11.20;99.90
12911;DHT22;6523;49.758;6.120;2023-04-23T06:22:11;11.30;99.90
12911;DHT22;6523;49.758;6.120;2023-04-23T06:24:37;11.20;99.90
12911;DHT22;6523;49.758;6.120;2023-04-23T06:27:03;11.10;99.90
12911;DHT22;6523;49.758;6.120;2023-04-23T06:29:28;11.10;99.90
12911;DHT22;6523;49.758;6.120;2023-04-23T06:31:55;11.20;99.90
12911;DHT22;6523;49.758;6.120;2023-04-23T06:34:21;11.30;99.90
12911;DHT22;6523;49.758;6.120;2023-04-23T06:36:47;11.50;99.90
12911;DHT22;6523;49.758;6.120;2023-04-23T06:39:12;11.60;99.90
12911;DHT22;6523;49.758;6.120;2023-04-23T06:41:38;11.60;99.90
12911;DHT22;6523;49.758;6.120;2023-04-23T06:44:03;11.50;99.90
12911;DHT22;6523;49.758;6.120;2023-04-23T06:46:29;11.70;99.90
12911;DHT22;6523;49.758;6.120;2023-04-23T06:48:54;11.60;99.90
12911;DHT22;6523;49.758;6.120;2023-04-23T06:51:20;11.50;99.90
12911;DHT22;6523;49.758;6.120;2023-04-23T06:53:46;11.50;99.90
12911;DHT22;6523;49.758;6.120;2023-04-23T06:56:11;11.70;99.90
12911;DHT22;6523;49.758;6.120;2023-04-23T06:58:37;11.80;99.90
12911;DHT22;6523;49.758;6.120;2023-04-23T07:01:03;11.80;99.90
12911;DHT22;6523;49.758;6.120;2023-04-23T07:03:30;11.80;99.90
12911;DHT22;6523;49.758;6.120;2023-04-23T07:05:56;11.80;99.90
12911;DHT22;6523;49.758;6.120;2023-04-23T07:08:22;11.60;99.90
12911;DHT22;6523;49.758;6.120;2023-04-23T07:10:47;11.50;99.90
12911;DHT22;6523;49.758;6.120;2023-04-23T07:13:14;11.50;99.90
12911;DHT22;6523;49.758;6.120;2023-04-23T07:15:39;11.80;99.90
12911;DHT22;6523;49.758;6.120;2023-04-23T07:18:06;11.90;99.90
12911;DHT22;6523;49.758;6.120;2023-04-23T07:20:31;11.90;99.90
12911;DHT22;6523;49.758;6.120;2023-04-23T07:22:58;11.70;99.90
12911;DHT22;6523;49.758;6.120;2023-04-23T07:25:24;11.60;99.90
12911;DHT22;6523;49.758;6.120;2023-04-23T07:27:51;11.70;99.90
12911;DHT22;6523;49.758;6.120;2023-04-23T07:30:17;11.80;99.90
12911;DHT22;6523;49.758;6.120;2023-04-23T07:32:43;11.90;99.90
12911;DHT22;6523;49.758;6.120;2023-04-23T07:35:09;11.90;99.90
12911;DHT22;6523;49.758;6.120;2023-04-23T07:37:36;11.90;99.90
12911;DHT22;6523;49.758;6.120;2023-04-23T07:40:02;12.10;99.90
12911;DHT22;6523;49.758;6.120;2023-04-23T07:42:28;12.10;99.90
12911;DHT22;6523;49.758;6.120;2023-04-23T07:44:54;12.10;99.90
12911;DHT22;6523;49.758;6.120;2023-04-23T07:47:20;12.70;99.90
12911;DHT22;6523;49.758;6.120;2023-04-23T07:49:45;12.40;99.90
12911;DHT22;6523;49.758;6.120;2023-04-23T07:52:11;12.20;99.90
12911;DHT22;6523;49.758;6.120;2023-04-23T07:54:36;12.30;99.90
12911;DHT22;6523;49.758;6.120;2023-04-23T07:57:02;12.50;99.90
12911;DHT22;6523;49.758;6.120;2023-04-23T07:59:28;12.30;99.90
12911;DHT22;6523;49.758;6.120;2023-04-23T08:01:54;12.70;99.90
12911;DHT22;6523;49.758;6.120;2023-04-23T08:04:19;12.50;99.90
12911;DHT22;6523;49.758;6.120;2023-04-23T08:06:45;12.70;99.90
12911;DHT22;6523;49.758;6.120;2023-04-23T08:09:10;12.30;99.90
12911;DHT22;6523;49.758;6.120;2023-04-23T08:11:36;12.20;99.90
12911;DHT22;6523;49.758;6.120;2023-04-23T08:14:01;12.40;99.90
12911;DHT22;6523;49.758;6.120;2023-04-23T08:16:27;12.80;99.90
12911;DHT22;6523;49.758;6.120;2023-04-23T08:18:53;13.00;99.90
12911;DHT22;6523;49.758;6.120;2023-04-23T08:21:18;12.90;99.90
12911;DHT22;6523;49.758;6.120;2023-04-23T08:23:44;12.90;99.90
12911;DHT22;6523;49.758;6.120;2023-04-23T08:26:09;12.70;99.90
12911;DHT22;6523;49.758;6.120;2023-04-23T08:28:35;12.90;99.90
12911;DHT22;6523;49.758;6.120;2023-04-23T08:31:01;13.00;99.90
12911;DHT22;6523;49.758;6.120;2023-04-23T08:33:26;12.70;99.90
12911;DHT22;6523;49.758;6.120;2023-04-23T08:35:52;12.90;99.90
12911;DHT22;6523;49.758;6.120;2023-04-23T08:38:17;13.40;99.90
12911;DHT22;6523;49.758;6.120;2023-04-23T08:40:44;13.60;99.90
12911;DHT22;6523;49.758;6.120;2023-04-23T08:44:01;13.60;99.90
12911;DHT22;6523;49.758;6.120;2023-04-23T08:46:02;13.20;99.90
12911;DHT22;6523;49.758;6.120;2023-04-23T08:48:33;13.10;99.90
12911;DHT22;6523;49.758;6.120;2023-04-23T08:51:02;13.20;99.90
12911;DHT22;6523;49.758;6.120;2023-04-23T08:53:28;13.00;99.90
12911;DHT22;6523;49.758;6.120;2023-04-23T08:55:57;13.00;99.90
12911;DHT22;6523;49.758;6.120;2023-04-23T08:58:23;13.10;99.90
12911;DHT22;6523;49.758;6.120;2023-04-23T09:00:52;13.20;99.90
12911;DHT22;6523;49.758;6.120;2023-04-23T09:03:19;13.40;99.90
12911;DHT22;6523;49.758;6.120;2023-04-23T09:05:46;13.50;99.90
12911;DHT22;6523;49.758;6.120;2023-04-23T09:08:11;13.30;99.90
12911;DHT22;6523;49.758;6.120;2023-04-23T09:10:39;13.40;99.90
12911;DHT22;6523;49.758;6.120;2023-04-23T09:13:06;13.40;99.90
12911;DHT22;6523;49.758;6.120;2023-04-23T09:15:31;13.20;99.90
12911;DHT22;6523;49.758;6.120;2023-04-23T09:17:58;13.30;99.90
12911;DHT22;6523;49.758;6.120;2023-04-23T09:20:25;13.20;99.90
12911;DHT22;6523;49.758;6.120;2023-04-23T09:22:51;13.30;99.90
12911;DHT22;6523;49.758;6.120;2023-04-23T09:25:21;13.60;99.90
12911;DHT22;6523;49.758;6.120;2023-04-23T09:27:49;13.80;99.90
12911;DHT22;6523;49.758;6.120;2023-04-23T09:30:15;13.80;99.90
12911;DHT22;6523;49.758;6.120;2023-04-23T09:32:43;14.00;99.90
12911;DHT22;6523;49.758;6.120;2023-04-23T09:35:13;14.20;99.90
12911;DHT22;6523;49.758;6.120;2023-04-23T09:37:48;14.70;99.90
12911;DHT22;6523;49.758;6.120;2023-04-23T09:40:17;14.40;99.90
12911;DHT22;6523;49.758;6.120;2023-04-23T09:42:47;14.10;99.90
12911;DHT22;6523;49.758;6.120;2023-04-23T09:45:14;14.20;99.90
12911;DHT22;6523;49.758;6.120;2023-04-23T09:47:51;14.10;99.90
12911;DHT22;6523;49.758;6.120;2023-04-23T09:50:18;14.10;99.90
12911;DHT22;6523;49.758;6.120;2023-04-23T09:52:43;14.20;99.90
12911;DHT22;6523;49.758;6.120;2023-04-23T09:55:09;14.30;99.90
12911;DHT22;6523;49.758;6.120;2023-04-23T09:57:45;14.80;99.90
12911;DHT22;6523;49.758;6.120;2023-04-23T10:00:13;14.50;99.90
12911;DHT22;6523;49.758;6.120;2023-04-23T10:02:45;13.90;99.90
12911;DHT22;6523;49.758;6.120;2023-04-23T10:05:20;13.80;99.90
12911;DHT22;6523;49.758;6.120;2023-04-23T10:07:47;14.10;99.90
12911;DHT22;6523;49.758;6.120;2023-04-23T10:10:16;14.60;99.90
12911;DHT22;6523;49.758;6.120;2023-04-23T10:12:43;14.70;99.90
12911;DHT22;6523;49.758;6.120;2023-04-23T10:15:10;14.50;99.90
12911;DHT22;6523;49.758;6.120;2023-04-23T10:17:37;14.60;99.90
12911;DHT22;6523;49.758;6.120;2023-04-23T10:20:03;14.40;99.90
12911;DHT22;6523;49.758;6.120;2023-04-23T10:22:30;14.80;99.90
12911;DHT22;6523;49.758;6.120;2023-04-23T10:24:57;14.80;99.90
12911;DHT22;6523;49.758;6.120;2023-04-23T10:27:29;14.60;99.90
12911;DHT22;6523;49.758;6.120;2023-04-23T10:29:56;15.10;99.90
12911;DHT22;6523;49.758;6.120;2023-04-23T10:32:22;15.30;99.90
12911;DHT22;6523;49.758;6.120;2023-04-23T10:34:49;15.40;99.90
12911;DHT22;6523;49.758;6.120;2023-04-23T10:37:16;15.30;99.90
12911;DHT22;6523;49.758;6.120;2023-04-23T10:39:44;15.10;99.90
12911;DHT22;6523;49.758;6.120;2023-04-23T10:42:12;15.00;99.90
12911;DHT22;6523;49.758;6.120;2023-04-23T10:44:40;15.20;99.90
12911;DHT22;6523;49.758;6.120;2023-04-23T10:47:11;15.40;99.90
12911;DHT22;6523;49.758;6.120;2023-04-23T10:49:37;15.60;99.90
12911;DHT22;6523;49.758;6.120;2023-04-23T10:54:40;15.10;99.90
12911;DHT22;6523;49.758;6.120;2023-04-23T10:57:07;14.80;99.90
12911;DHT22;6523;49.758;6.120;2023-04-23T10:59:34;15.00;99.90
12911;DHT22;6523;49.758;6.120;2023-04-23T11:02:06;15.20;99.90
12911;DHT22;6523;49.758;6.120;2023-04-23T11:04:33;15.10;99.90
12911;DHT22;6523;49.758;6.120;2023-04-23T11:09:47;15.30;99.90
12911;DHT22;6523;49.758;6.120;2023-04-23T11:14:46;15.10;99.90
12911;DHT22;6523;49.758;6.120;2023-04-23T11:17:13;15.10;99.90
12911;DHT22;6523;49.758;6.120;2023-04-23T11:19:41;15.40;99.90
12911;DHT22;6523;49.758;6.120;2023-04-23T11:22:13;15.40;99.90
12911;DHT22;6523;49.758;6.120;2023-04-23T11:24:43;15.50;99.90
12911;DHT22;6523;49.758;6.120;2023-04-23T11:27:09;15.40;99.90
12911;DHT22;6523;49.758;6.120;2023-04-23T11:29:37;15.20;99.90
12911;DHT22;6523;49.758;6.120;2023-04-23T11:32:03;15.20;99.90
12911;DHT22;6523;49.758;6.120;2023-04-23T11:34:34;15.30;99.90
12911;DHT22;6523;49.758;6.120;2023-04-23T11:37:01;15.70;99.90
12911;DHT22;6523;49.758;6.120;2023-04-23T11:39:27;16.00;99.90
12911;DHT22;6523;49.758;6.120;2023-04-23T11:41:53;15.90;99.90
12911;DHT22;6523;49.758;6.120;2023-04-23T11:44:19;16.00;99.90
12911;DHT22;6523;49.758;6.120;2023-04-23T11:46:46;15.90;99.90
12911;DHT22;6523;49.758;6.120;2023-04-23T11:49:13;15.80;99.90
12911;DHT22;6523;49.758;6.120;2023-04-23T11:51:43;15.50;99.90
12911;DHT22;6523;49.758;6.120;2023-04-23T11:54:09;15.50;99.90
12911;DHT22;6523;49.758;6.120;2023-04-23T11:56:36;15.40;99.90
12911;DHT22;6523;49.758;6.120;2023-04-23T11:59:02;15.50;99.90
12911;DHT22;6523;49.758;6.120;2023-04-23T12:01:42;15.30;99.90
12911;DHT22;6523;49.758;6.120;2023-04-23T12:04:18;15.40;99.90
12911;DHT22;6523;49.758;6.120;2023-04-23T12:06:45;15.20;99.90
12911;DHT22;6523;49.758;6.120;2023-04-23T12:09:12;15.30;99.90
12911;DHT22;6523;49.758;6.120;2023-04-23T12:11:40;15.00;99.90
12911;DHT22;6523;49.758;6.120;2023-04-23T12:14:06;15.10;99.90
12911;DHT22;6523;49.758;6.120;2023-04-23T12:16:53;15.00;99.90
12911;DHT22;6523;49.758;6.120;2023-04-23T12:19:21;15.10;99.90
12911;DHT22;6523;49.758;6.120;2023-04-23T12:21:51;15.00;99.90
12911;DHT22;6523;49.758;6.120;2023-04-23T12:24:20;15.00;99.90
12911;DHT22;6523;49.758;6.120;2023-04-23T12:26:51;15.00;99.90
12911;DHT22;6523;49.758;6.120;2023-04-23T12:29:19;15.00;99.90
12911;DHT22;6523;49.758;6.120;2023-04-23T12:31:46;14.90;99.90
12911;DHT22;6523;49.758;6.120;2023-04-23T12:34:13;15.00;99.90
12911;DHT22;6523;49.758;6.120;2023-04-23T12:36:45;15.00;99.90
12911;DHT22;6523;49.758;6.120;2023-04-23T12:39:31;15.00;99.90
12911;DHT22;6523;49.758;6.120;2023-04-23T12:42:03;14.90;99.90
12911;DHT22;6523;49.758;6.120;2023-04-23T12:44:34;15.00;99.90
12911;DHT22;6523;49.758;6.120;2023-04-23T12:47:08;15.10;99.90
12911;DHT22;6523;49.758;6.120;2023-04-23T12:49:37;15.00;99.90
12911;DHT22;6523;49.758;6.120;2023-04-23T12:52:04;14.90;99.90
12911;DHT22;6523;49.758;6.120;2023-04-23T12:54:32;15.00;99.90
12911;DHT22;6523;49.758;6.120;2023-04-23T12:56:59;15.00;99.90
12911;DHT22;6523;49.758;6.120;2023-04-23T12:59:26;15.10;99.90
12911;DHT22;6523;49.758;6.120;2023-04-23T13:01:51;15.10;99.90
12911;DHT22;6523;49.758;6.120;2023-04-23T13:04:17;15.10;99.90
12911;DHT22;6523;49.758;6.120;2023-04-23T13:06:43;15.10;99.90
12911;DHT22;6523;49.758;6.120;2023-04-23T13:09:08;15.10;99.90
12911;DHT22;6523;49.758;6.120;2023-04-23T13:11:38;15.20;99.90
12911;DHT22;6523;49.758;6.120;2023-04-23T13:14:04;15.20;99.90
12911;DHT22;6523;49.758;6.120;2023-04-23T13:16:30;15.10;99.90
12911;DHT22;6523;49.758;6.120;2023-04-23T13:18:56;14.80;99.90
12911;DHT22;6523;49.758;6.120;2023-04-23T13:21:21;14.90;99.90
12911;DHT22;6523;49.758;6.120;2023-04-23T13:23:47;15.10;99.90
12911;DHT22;6523;49.758;6.120;2023-04-23T13:26:13;15.20;99.90
12911;DHT22;6523;49.758;6.120;2023-04-23T13:28:39;15.30;99.90
12911;DHT22;6523;49.758;6.120;2023-04-23T13:31:05;15.30;99.90
12911;DHT22;6523;49.758;6.120;2023-04-23T13:33:32;15.50;99.90
12911;DHT22;6523;49.758;6.120;2023-04-23T13:36:01;15.40;99.90
12911;DHT22;6523;49.758;6.120;2023-04-23T13:38:28;15.10;99.90
12911;DHT22;6523;49.758;6.120;2023-04-23T13:40:53;15.00;99.90
12911;DHT22;6523;49.758;6.120;2023-04-23T13:43:19;14.80;99.90
12911;DHT22;6523;49.758;6.120;2023-04-23T13:45:45;14.50;99.90
12911;DHT22;6523;49.758;6.120;2023-04-23T13:48:14;14.40;99.90
12911;DHT22;6523;49.758;6.120;2023-04-23T13:50:40;14.10;99.90
12911;DHT22;6523;49.758;6.120;2023-04-23T13:53:08;14.00;99.90
12911;DHT22;6523;49.758;6.120;2023-04-23T13:55:34;13.80;99.90
12911;DHT22;6523;49.758;6.120;2023-04-23T13:57:59;13.70;99.90
12911;DHT22;6523;49.758;6.120;2023-04-23T14:00:27;13.60;99.90
12911;DHT22;6523;49.758;6.120;2023-04-23T14:02:53;13.60;99.90
12911;DHT22;6523;49.758;6.120;2023-04-23T14:05:19;13.60;99.90
12911;DHT22;6523;49.758;6.120;2023-04-23T14:07:45;13.50;99.90
12911;DHT22;6523;49.758;6.120;2023-04-23T14:10:11;13.40;99.90
12911;DHT22;6523;49.758;6.120;2023-04-23T14:12:37;13.30;99.90
12911;DHT22;6523;49.758;6.120;2023-04-23T14:15:04;13.30;99.90
12911;DHT22;6523;49.758;6.120;2023-04-23T14:17:30;13.10;99.90
12911;DHT22;6523;49.758;6.120;2023-04-23T14:19:56;12.90;99.90
12911;DHT22;6523;49.758;6.120;2023-04-23T14:22:22;12.60;99.90
12911;DHT22;6523;49.758;6.120;2023-04-23T14:24:56;12.50;99.90
12911;DHT22;6523;49.758;6.120;2023-04-23T14:27:25;12.40;99.90
12911;DHT22;6523;49.758;6.120;2023-04-23T14:29:56;12.40;99.90
12911;DHT22;6523;49.758;6.120;2023-04-23T14:32:22;12.40;99.90
12911;DHT22;6523;49.758;6.120;2023-04-23T14:34:49;12.40;99.90
12911;DHT22;6523;49.758;6.120;2023-04-23T14:37:15;12.40;99.90
12911;DHT22;6523;49.758;6.120;2023-04-23T14:39:42;12.20;99.90
12911;DHT22;6523;49.758;6.120;2023-04-23T14:42:07;12.30;99.90
12911;DHT22;6523;49.758;6.120;2023-04-23T14:44:33;12.40;99.90
12911;DHT22;6523;49.758;6.120;2023-04-23T14:46:58;12.20;99.90
12911;DHT22;6523;49.758;6.120;2023-04-23T14:49:24;12.20;99.90
12911;DHT22;6523;49.758;6.120;2023-04-23T14:51:51;12.20;99.90
12911;DHT22;6523;49.758;6.120;2023-04-23T14:54:22;12.30;99.90
12911;DHT22;6523;49.758;6.120;2023-04-23T14:56:48;12.20;99.90
12911;DHT22;6523;49.758;6.120;2023-04-23T14:59:14;12.30;99.90
12911;DHT22;6523;49.758;6.120;2023-04-23T15:01:40;12.30;99.90
12911;DHT22;6523;49.758;6.120;2023-04-23T15:04:05;12.50;99.90
12911;DHT22;6523;49.758;6.120;2023-04-23T15:06:31;12.60;99.90
12911;DHT22;6523;49.758;6.120;2023-04-23T15:08:56;12.60;99.90
12911;DHT22;6523;49.758;6.120;2023-04-23T15:11:22;12.60;99.90
12911;DHT22;6523;49.758;6.120;2023-04-23T15:13:51;12.40;99.90
12911;DHT22;6523;49.758;6.120;2023-04-23T15:16:33;12.20;99.90
12911;DHT22;6523;49.758;6.120;2023-04-23T15:19:01;12.30;99.90
12911;DHT22;6523;49.758;6.120;2023-04-23T15:21:28;12.20;99.90
12911;DHT22;6523;49.758;6.120;2023-04-23T15:23:53;12.30;99.90
12911;DHT22;6523;49.758;6.120;2023-04-23T15:26:19;12.30;99.90
12911;DHT22;6523;49.758;6.120;2023-04-23T15:28:46;12.40;99.90
12911;DHT22;6523;49.758;6.120;2023-04-23T15:31:11;12.30;99.90
12911;DHT22;6523;49.758;6.120;2023-04-23T15:33:37;12.40;99.90
12911;DHT22;6523;49.758;6.120;2023-04-23T15:36:03;12.50;99.90
12911;DHT22;6523;49.758;6.120;2023-04-23T15:38:29;12.70;99.90
12911;DHT22;6523;49.758;6.120;2023-04-23T15:40:55;12.70;99.90
12911;DHT22;6523;49.758;6.120;2023-04-23T15:43:21;12.60;99.90
12911;DHT22;6523;49.758;6.120;2023-04-23T15:45:47;12.70;99.90
12911;DHT22;6523;49.758;6.120;2023-04-23T15:48:15;12.60;99.90